Time;durP1;ratioP1;P1;durP2;ratioP2;P2;SDS_P1;SDS_P2;PMS_P1;PMS_P2;Temp;Humidity;BMP_temperature;BMP_pressure;BME280_temperature;BME280_humidity;BME280_pressure;Samples;Min_cycle;Max_cycle;Signal;HPM_P1;HPM_P2
2021/11/26 00:00:10;;;;;;;15.27;8.82;;;;;;;14.31;73.86;101457.13;4914040;29;20044;-69
2021/11/26 00:02:38;;;;;;;15.82;8.35;;;;;;;14.28;73.84;101444.72;4915803;29;20493;-68
2021/11/26 00:05:08;;;;;;;18.00;9.13;;;;;;;14.27;74.12;101445.59;4915272;29;20444;-68
2021/11/26 00:07:36;;;;;;;19.70;9.13;;;;;;;14.21;74.40;101448.19;4914768;29;20044;-69
2021/11/26 00:10:05;;;;;;;15.98;8.68;;;;;;;14.24;74.60;101450.00;4912560;29;20071;-68
2021/11/26 00:12:33;;;;;;;18.15;9.63;;;;;;;14.22;74.77;101460.59;4930192;29;20134;-68
2021/11/26 00:15:13;;;;;;;15.63;9.73;;;;;;;14.21;74.80;101456.13;4935264;29;20179;-68
2021/11/26 00:17:48;;;;;;;13.75;8.15;;;;;;;14.20;74.33;101450.81;4933200;29;20440;-68
2021/11/26 00:20:18;;;;;;;15.15;9.00;;;;;;;14.16;73.97;101459.63;4929300;29;20052;-69
2021/11/26 00:22:46;;;;;;;13.52;8.30;;;;;;;14.12;73.81;101457.78;4924026;29;20059;-69
2021/11/26 00:25:14;;;;;;;16.33;9.27;;;;;;;14.12;74.06;101456.03;4933194;29;20039;-68
2021/11/26 00:27:42;;;;;;;16.83;10.48;;;;;;;14.12;74.22;101449.81;4915300;29;20123;-68
2021/11/26 00:30:11;;;;;;;16.13;12.23;;;;;;;13.98;74.32;101431.06;4914977;29;20068;-69
2021/11/26 00:32:38;;;;;;;15.85;9.77;;;;;;;13.75;74.80;101424.56;4914895;29;20064;-69
2021/11/26 00:35:07;;;;;;;13.15;8.43;;;;;;;13.62;75.58;101438.53;4916603;29;20053;-69
2021/11/26 00:37:36;;;;;;;14.82;8.43;;;;;;;13.50;76.15;101437.50;4915649;29;20090;-70
2021/11/26 00:40:05;;;;;;;13.45;8.52;;;;;;;13.41;76.44;101434.72;4922285;29;20054;-68
2021/11/26 00:42:33;;;;;;;14.73;8.23;;;;;;;13.46;76.74;101438.31;4922177;29;20071;-68
2021/11/26 00:45:01;;;;;;;16.48;8.45;;;;;;;13.59;76.21;101433.22;4924311;29;20094;-68
2021/11/26 00:47:28;;;;;;;14.07;9.50;;;;;;;13.70;75.50;101444.84;4896981;29;20064;-68
2021/11/26 00:49:56;;;;;;;18.25;8.52;;;;;;;13.72;75.14;101448.44;4907895;29;20055;-68
2021/11/26 00:52:24;;;;;;;16.08;9.30;;;;;;;13.75;74.88;101445.81;4915294;29;20048;-68
2021/11/26 00:54:53;;;;;;;18.27;8.95;;;;;;;13.74;74.47;101434.28;4915650;29;20056;-68
2021/11/26 00:57:21;;;;;;;14.15;9.35;;;;;;;13.66;74.54;101440.38;4926293;29;20076;-68
2021/11/26 00:59:49;;;;;;;17.08;8.95;;;;;;;13.63;74.90;101435.03;4900825;29;20083;-68
2021/11/26 01:02:17;;;;;;;19.67;10.05;;;;;;;13.63;75.13;101435.91;4917159;29;20382;-69
2021/11/26 01:04:44;;;;;;;19.80;10.13;;;;;;;13.57;75.29;101428.78;4915390;29;20127;-68
2021/11/26 01:07:12;;;;;;;17.35;8.73;;;;;;;13.53;75.73;101423.38;4919681;29;20051;-69
2021/11/26 01:09:40;;;;;;;16.30;9.23;;;;;;;13.59;75.73;101417.31;4934076;29;20345;-68
2021/11/26 01:12:11;;;;;;;16.08;8.90;;;;;;;13.62;75.76;101407.59;4933123;29;20043;-69
2021/11/26 01:14:41;;;;;;;16.40;9.30;;;;;;;13.63;75.72;101397.88;4926946;29;20047;-69
2021/11/26 01:17:09;;;;;;;15.95;9.55;;;;;;;13.62;75.41;101390.78;4915165;29;20048;-69
2021/11/26 01:19:37;;;;;;;17.38;9.15;;;;;;;13.55;75.32;101388.06;4925908;29;20044;-69
2021/11/26 01:22:05;;;;;;;12.52;8.20;;;;;;;13.40;75.94;101390.50;4933481;29;20441;-68
2021/11/26 01:24:33;;;;;;;14.70;8.35;;;;;;;13.34;76.70;101402.78;4933344;29;20055;-68
2021/11/26 01:27:04;;;;;;;17.45;9.00;;;;;;;13.28;76.94;101397.38;4917200;29;20050;-68
2021/11/26 01:29:33;;;;;;;15.82;8.55;;;;;;;13.28;77.24;101400.94;4924250;29;20078;-68
2021/11/26 01:32:00;;;;;;;14.52;8.32;;;;;;;13.07;77.93;101393.50;4898244;29;20068;-68
2021/11/26 01:34:28;;;;;;;16.80;9.10;;;;;;;13.16;78.28;101384.84;4915817;29;20036;-68
2021/11/26 01:36:56;;;;;;;13.13;8.32;;;;;;;13.20;78.36;101381.34;4923006;29;20046;-69
2021/11/26 01:39:24;;;;;;;14.52;9.07;;;;;;;13.23;78.69;101381.41;4923601;29;20401;-69
2021/11/26 01:41:54;;;;;;;17.20;8.60;;;;;;;13.35;78.68;101375.38;4917005;29;20055;-68
2021/11/26 01:44:22;;;;;;;15.05;8.63;;;;;;;13.47;78.30;101378.22;4914893;29;20044;-69
2021/11/26 01:46:51;;;;;;;18.77;8.82;;;;;;;13.54;77.87;101383.63;4915713;29;20080;-68
2021/11/26 01:49:19;;;;;;;16.77;9.57;;;;;;;13.64;78.14;101378.44;4914297;29;20040;-69
2021/11/26 01:51:46;;;;;;;18.27;10.65;;;;;;;13.74;78.39;101381.22;4914846;29;20135;-69
2021/11/26 01:54:14;;;;;;;14.93;9.85;;;;;;;13.82;78.54;101376.03;4923769;29;20603;-69
2021/11/26 01:56:42;;;;;;;20.02;9.70;;;;;;;13.88;78.84;101370.78;4918944;29;20052;-69
2021/11/26 01:59:10;;;;;;;13.38;8.40;;;;;;;13.93;79.42;101350.47;4915353;29;20046;-69
2021/11/26 02:01:38;;;;;;;21.95;9.80;;;;;;;14.02;80.10;101334.69;4900815;29;20067;-69
2021/11/26 02:04:08;;;;;;;20.27;12.48;;;;;;;14.11;80.60;101324.13;4919214;29;20500;-69
2021/11/26 02:06:35;;;;;;;13.73;7.75;;;;;;;14.12;80.81;101322.38;4907427;29;20059;-69
2021/11/26 02:09:04;;;;;;;14.05;7.75;;;;;;;14.20;81.33;101328.66;4931833;29;20107;-69
2021/11/26 02:11:31;;;;;;;13.90;8.50;;;;;;;14.31;82.13;101311.94;4902123;29;20041;-69
2021/11/26 02:13:59;;;;;;;14.35;7.30;;;;;;;14.41;82.49;101314.72;4913700;29;20040;-69
2021/11/26 02:16:27;;;;;;;12.95;7.20;;;;;;;14.49;82.59;101310.38;4926717;29;20047;-69
2021/11/26 02:18:55;;;;;;;12.25;6.68;;;;;;;14.55;82.62;101291.81;4923959;29;20440;-69
2021/11/26 02:21:25;;;;;;;10.23;5.85;;;;;;;14.64;82.67;101281.25;4916278;29;20048;-69
2021/11/26 02:23:53;;;;;;;9.93;6.75;;;;;;;14.68;82.78;101268.00;4915765;29;20052;-69
2021/11/26 02:26:20;;;;;;;8.25;4.88;;;;;;;14.78;83.03;101279.56;4922242;29;20052;-69
2021/11/26 02:28:48;;;;;;;7.18;5.25;;;;;;;14.88;83.05;101270.81;4913276;29;20068;-69
2021/11/26 02:31:16;;;;;;;7.22;4.30;;;;;;;14.97;82.92;101265.50;4897025;29;20558;-67
2021/11/26 02:33:44;;;;;;;7.90;5.68;;;;;;;15.11;82.64;101268.25;4914444;29;20758;-69
2021/11/26 02:36:12;;;;;;;9.73;5.50;;;;;;;15.22;82.08;101247.03;4916088;29;20043;-70
2021/11/26 02:38:42;;;;;;;7.18;4.65;;;;;;;15.33;81.62;101238.22;4926065;29;20115;-69
2021/11/26 02:41:09;;;;;;;8.50;4.55;;;;;;;15.42;81.08;101243.59;4922866;29;20162;-69
2021/11/26 02:43:37;;;;;;;8.82;5.35;;;;;;;15.51;80.46;101238.28;4931020;29;20059;-69
2021/11/26 02:46:05;;;;;;;7.60;5.05;;;;;;;15.56;79.98;101219.69;4899664;29;20124;-73
2021/11/26 02:48:33;;;;;;;7.70;3.50;;;;;;;15.63;79.55;101223.25;4915149;29;20048;-68
2021/11/26 02:51:01;;;;;;;9.18;5.28;;;;;;;15.67;79.18;101194.00;4912120;29;20048;-70
2021/11/26 02:53:29;;;;;;;6.78;4.70;;;;;;;15.69;78.77;101194.88;4912936;29;20044;-70
2021/11/26 02:55:58;;;;;;;8.85;3.90;;;;;;;15.77;78.22;101201.09;4918358;29;20048;-70
2021/11/26 02:58:26;;;;;;;7.40;3.30;;;;;;;15.79;78.09;101187.81;4923564;29;20403;-69
2021/11/26 03:00:57;;;;;;;6.05;3.00;;;;;;;15.81;78.02;101180.72;4931832;29;20519;-69
2021/11/26 03:03:25;;;;;;;7.47;3.85;;;;;;;15.79;78.04;101194.03;4924011;29;20745;-69
2021/11/26 03:05:57;;;;;;;4.30;2.75;;;;;;;15.80;78.12;101203.78;4931700;29;20508;-70
2021/11/26 03:08:26;;;;;;;5.35;3.28;;;;;;;15.81;77.80;101207.34;4913709;29;20058;-70
2021/11/26 03:10:53;;;;;;;7.38;3.13;;;;;;;15.88;77.56;101235.75;4925130;29;20619;-69
2021/11/26 03:13:23;;;;;;;4.55;2.67;;;;;;;15.92;77.21;101253.50;4911706;29;20041;-69
2021/11/26 03:15:52;;;;;;;5.20;1.85;;;;;;;15.90;77.14;101284.53;4913111;29;20044;-69
2021/11/26 03:18:21;;;;;;;10.43;3.38;;;;;;;15.86;77.44;101286.31;4930410;29;20515;-69
2021/11/26 03:20:52;;;;;;;8.07;4.35;;;;;;;15.83;77.63;101273.00;4913387;29;20538;-69
2021/11/26 03:23:22;;;;;;;8.38;3.70;;;;;;;15.82;77.72;101281.88;4910425;29;20044;-69
2021/11/26 03:25:49;;;;;;;6.82;2.58;;;;;;;15.78;77.88;101281.84;4913465;29;20511;-69
2021/11/26 03:28:18;;;;;;;8.13;2.38;;;;;;;15.76;77.96;101265.88;4919793;29;20044;-69
2021/11/26 03:30:48;;;;;;;11.10;3.03;;;;;;;15.74;78.02;101267.66;4925237;29;20563;-68
2021/11/26 03:33:16;;;;;;;9.65;3.47;;;;;;;15.69;78.13;101265.84;4913769;29;20052;-69
2021/11/26 03:35:44;;;;;;;13.20;4.70;;;;;;;15.68;78.11;101278.31;4912872;29;20080;-69
2021/11/26 03:38:12;;;;;;;2.30;1.15;;;;;;;15.67;78.17;101275.63;4912228;29;20457;-69
2021/11/26 03:40:40;;;;;;;5.70;2.90;;;;;;;15.68;78.32;101290.72;4901617;29;20097;-69
2021/11/26 03:43:08;;;;;;;4.13;2.63;;;;;;;15.67;78.16;101278.28;4918926;29;20048;-68
2021/11/26 03:45:36;;;;;;;5.18;2.75;;;;;;;15.66;78.24;101273.84;4930946;29;20052;-69
2021/11/26 03:48:06;;;;;;;7.18;3.17;;;;;;;15.63;78.21;101272.06;4915219;29;20043;-69
2021/11/26 03:50:33;;;;;;;5.20;2.90;;;;;;;15.62;78.30;101259.63;4929243;29;20048;-68
2021/11/26 03:53:01;;;;;;;5.53;3.13;;;;;;;15.63;78.23;101261.41;4925212;29;20051;-69
2021/11/26 03:55:30;;;;;;;3.10;1.98;;;;;;;15.64;78.23;101257.88;4914721;29;20047;-69
2021/11/26 03:57:59;;;;;;;7.88;3.53;;;;;;;15.66;78.33;101250.78;4910226;29;20130;-69
2021/11/26 04:00:28;;;;;;;8.13;4.22;;;;;;;15.70;78.40;101244.56;4912117;29;20052;-69
2021/11/26 04:02:56;;;;;;;5.85;2.33;;;;;;;15.73;78.25;101247.25;4924203;29;20057;-69
2021/11/26 04:05:26;;;;;;;4.53;2.55;;;;;;;15.79;78.31;101247.25;4925074;29;20071;-69
2021/11/26 04:07:54;;;;;;;5.10;2.58;;;;;;;15.82;78.23;101254.34;4919531;29;20044;-69
2021/11/26 04:10:22;;;;;;;4.90;2.05;;;;;;;15.86;78.35;101257.03;4911589;29;20075;-69
2021/11/26 04:12:51;;;;;;;4.10;2.58;;;;;;;15.89;78.29;101267.69;4907956;29;20044;-68
2021/11/26 04:15:19;;;;;;;4.55;1.80;;;;;;;15.90;78.35;101280.13;4921643;29;20096;-68
2021/11/26 04:17:49;;;;;;;3.95;1.58;;;;;;;15.93;78.43;101272.16;4927424;29;20114;-69
2021/11/26 04:20:19;;;;;;;5.13;2.22;;;;;;;15.97;78.44;101264.16;4930172;29;20559;-69
2021/11/26 04:22:49;;;;;;;2.63;1.48;;;;;;;15.98;78.56;101261.50;4928008;29;20131;-69
2021/11/26 04:25:19;;;;;;;2.80;1.92;;;;;;;16.01;78.45;101261.50;4911540;29;20051;-69
2021/11/26 04:27:47;;;;;;;1.63;0.95;;;;;;;16.01;78.55;101271.28;4902240;29;20099;-69
2021/11/26 04:30:16;;;;;;;2.92;1.08;;;;;;;16.04;78.73;101276.59;4921830;29;20051;-68
2021/11/26 04:32:44;;;;;;;1.73;1.17;;;;;;;16.10;78.71;101290.81;4929616;29;20118;-69
2021/11/26 04:35:12;;;;;;;4.60;2.70;;;;;;;16.15;78.61;101297.00;4924042;29;20048;-68
2021/11/26 04:37:40;;;;;;;5.13;2.10;;;;;;;16.21;78.56;101298.81;4913062;29;20055;-69
2021/11/26 04:40:12;;;;;;;2.65;1.65;;;;;;;16.23;78.52;101305.03;4912026;29;20060;-68
2021/11/26 04:42:41;;;;;;;4.18;1.77;;;;;;;16.25;78.50;101321.91;4918956;29;20052;-68
2021/11/26 04:45:11;;;;;;;4.97;0.93;;;;;;;16.26;78.50;101311.25;4901524;29;20044;-69
2021/11/26 04:47:40;;;;;;;1.33;0.95;;;;;;;16.29;78.48;101319.25;4911834;29;20076;-69
2021/11/26 04:50:10;;;;;;;5.88;2.53;;;;;;;16.33;78.43;101323.72;4895241;29;20123;-69
2021/11/26 04:52:38;;;;;;;4.90;2.08;;;;;;;16.37;78.47;101327.25;4912952;29;20056;-69
2021/11/26 04:55:07;;;;;;;3.00;1.45;;;;;;;16.42;78.45;101340.56;4923232;29;20051;-69
2021/11/26 04:57:37;;;;;;;0.30;0.30;;;;;;;16.45;78.47;101346.81;4929623;29;20058;-69
2021/11/26 05:00:07;;;;;;;0.55;0.40;;;;;;;16.49;78.56;101345.03;4918432;29;20063;-69
2021/11/26 05:02:36;;;;;;;3.90;1.67;;;;;;;16.51;78.54;101327.25;4918977;29;20468;-70
2021/11/26 05:05:03;;;;;;;5.00;1.60;;;;;;;16.54;78.63;101324.63;4931537;29;20063;-69
2021/11/26 05:07:31;;;;;;;1.30;1.17;;;;;;;16.57;78.69;101320.16;4933873;29;20131;-69
2021/11/26 05:10:02;;;;;;;0.65;0.65;;;;;;;16.62;78.69;101322.84;4929436;29;20051;-69
2021/11/26 05:12:34;;;;;;;2.72;1.65;;;;;;;16.68;78.75;101304.19;4921975;29;20409;-68
2021/11/26 05:15:03;;;;;;;0.98;0.55;;;;;;;16.74;78.57;101294.41;4915426;29;20055;-69
2021/11/26 05:17:31;;;;;;;1.15;0.95;;;;;;;16.76;78.62;101299.72;4911414;29;20048;-69
2021/11/26 05:19:59;;;;;;;4.03;2.13;;;;;;;16.79;78.52;101301.53;4915848;29;20045;-69
2021/11/26 05:22:27;;;;;;;1.45;0.73;;;;;;;16.84;78.46;101300.63;4929046;29;20076;-70
2021/11/26 05:24:54;;;;;;;3.00;1.67;;;;;;;16.90;78.44;101303.28;4911755;29;20126;-69
2021/11/26 05:27:22;;;;;;;0.35;0.30;;;;;;;16.95;78.29;101321.94;4929466;29;20082;-69
2021/11/26 05:29:50;;;;;;;1.75;1.25;;;;;;;16.98;78.21;101320.16;4901832;29;20044;-69
2021/11/26 05:32:19;;;;;;;1.13;0.82;;;;;;;16.99;78.09;101326.38;4915120;29;20068;-69
2021/11/26 05:34:47;;;;;;;0.85;0.85;;;;;;;17.01;78.17;101324.59;4928718;29;20047;-69
2021/11/26 05:37:14;;;;;;;4.75;1.70;;;;;;;17.04;78.26;101321.94;4920479;29;20139;-70
2021/11/26 05:39:42;;;;;;;0.38;0.38;;;;;;;17.06;78.23;101310.38;4923943;29;20379;-69
2021/11/26 05:42:10;;;;;;;0.17;0.17;;;;;;;17.12;78.22;101304.13;4926364;29;20044;-69
2021/11/26 05:44:39;;;;;;;0.90;0.85;;;;;;;17.14;78.19;101305.00;4929114;29;20423;-69
2021/11/26 05:47:07;;;;;;;0.40;0.22;;;;;;;17.18;78.16;101304.13;4918503;29;20499;-69
2021/11/26 05:49:37;;;;;;;1.65;0.38;;;;;;;17.23;78.07;101296.09;4914836;29;20044;-69
2021/11/26 05:52:04;;;;;;;4.80;1.88;;;;;;;17.28;78.08;101283.59;4912189;29;20127;-69
2021/11/26 05:54:32;;;;;;;2.63;1.48;;;;;;;17.34;77.88;101279.13;4914146;29;20048;-69
2021/11/26 05:57:00;;;;;;;2.10;1.55;;;;;;;17.40;77.53;101273.78;4925093;29;20098;-70
2021/11/26 05:59:27;;;;;;;1.10;0.85;;;;;;;17.43;77.36;101278.22;4896244;29;20052;-68
2021/11/26 06:01:56;;;;;;;2.03;1.50;;;;;;;17.48;77.58;101277.31;4890736;29;20051;-69
2021/11/26 06:04:24;;;;;;;0.57;0.15;;;;;;;17.49;77.26;101268.41;4927248;29;20044;-69
2021/11/26 06:06:53;;;;;;;3.13;2.05;;;;;;;17.57;77.09;101257.69;4928669;29;20108;-70
2021/11/26 06:09:21;;;;;;;2.22;0.98;;;;;;;17.60;76.70;101270.13;4899273;29;20103;-69
2021/11/26 06:11:48;;;;;;;0.90;0.60;;;;;;;17.61;76.49;101275.50;4925342;29;20044;-68
2021/11/26 06:14:17;;;;;;;1.05;0.95;;;;;;;17.61;76.54;101275.50;4912781;29;20062;-69
2021/11/26 06:16:44;;;;;;;0.70;0.28;;;;;;;17.61;76.30;101279.94;4931927;29;20036;-68
2021/11/26 06:19:13;;;;;;;2.25;0.95;;;;;;;17.62;76.36;101287.06;4921845;28;20040;-69
2021/11/26 06:21:40;;;;;;;0.43;0.40;;;;;;;17.62;76.48;101306.66;4925798;29;20054;-69
2021/11/26 06:24:09;;;;;;;0.40;0.38;;;;;;;17.68;76.57;101319.06;4914782;29;20044;-69
2021/11/26 06:26:39;;;;;;;0.73;0.73;;;;;;;17.71;76.60;101329.75;4917254;29;20084;-69
2021/11/26 06:29:07;;;;;;;0.55;0.55;;;;;;;17.76;76.47;101325.28;4915583;29;20119;-70
2021/11/26 06:31:35;;;;;;;0.77;0.55;;;;;;;17.80;76.51;101340.38;4898625;29;20056;-69
2021/11/26 06:34:03;;;;;;;2.00;1.00;;;;;;;17.83;76.46;101313.66;4919909;29;20119;-69
2021/11/26 06:36:32;;;;;;;2.22;1.00;;;;;;;17.86;76.52;101294.94;4897966;29;20044;-69
2021/11/26 06:39:01;;;;;;;0.15;0.15;;;;;;;17.91;76.49;101298.50;4916958;29;20054;-69
2021/11/26 06:41:30;;;;;;;0.73;0.73;;;;;;;17.94;76.56;101301.13;4928978;29;20044;-68
2021/11/26 06:43:58;;;;;;;0.40;0.40;;;;;;;17.95;76.38;101310.03;4930847;29;20159;-68
2021/11/26 06:46:26;;;;;;;0.52;0.38;;;;;;;17.97;76.45;101314.47;4925922;29;20456;-69
2021/11/26 06:48:54;;;;;;;0.30;0.30;;;;;;;17.99;76.38;101328.69;4921680;29;20040;-69
2021/11/26 06:51:22;;;;;;;0.20;0.20;;;;;;;18.01;76.29;101326.91;4918803;29;20043;-69
2021/11/26 06:53:49;;;;;;;0.57;0.57;;;;;;;18.03;76.42;101322.47;4924584;29;20523;-69
2021/11/26 06:56:17;;;;;;;2.25;0.88;;;;;;;18.04;76.55;101337.59;4923376;29;20406;-70
2021/11/26 06:58:47;;;;;;;1.70;0.63;;;;;;;18.09;76.55;101340.25;4915522;29;20051;-69
2021/11/26 07:01:15;;;;;;;1.98;0.60;;;;;;;18.18;76.65;101335.69;4928436;29;20044;-69
2021/11/26 07:03:42;;;;;;;0.93;0.88;;;;;;;18.43;76.96;101332.88;4921383;29;20454;-69
2021/11/26 07:06:10;;;;;;;2.08;1.00;;;;;;;18.66;76.98;101320.25;4926468;29;20377;-69
2021/11/26 07:08:37;;;;;;;1.48;0.82;;;;;;;18.86;77.23;101320.94;4930966;29;20142;-70
2021/11/26 07:11:05;;;;;;;0.20;0.10;;;;;;;19.07;77.47;101325.22;4915610;28;20102;-69
2021/11/26 07:13:33;;;;;;;0.85;0.63;;;;;;;19.27;76.99;101323.22;4904595;29;20072;-69
2021/11/26 07:16:02;;;;;;;0.95;0.73;;;;;;;19.41;76.78;101323.94;4917937;29;20048;-66
2021/11/26 07:18:30;;;;;;;2.35;0.70;;;;;;;19.40;76.08;101326.63;4925099;29;20122;-67
2021/11/26 07:20:58;;;;;;;2.13;1.05;;;;;;;19.32;75.38;101341.88;4922690;29;20055;-66
2021/11/26 07:23:26;;;;;;;1.48;0.85;;;;;;;19.25;75.21;101345.53;4917181;29;20044;-67
2021/11/26 07:25:53;;;;;;;2.13;0.95;;;;;;;19.18;75.22;101344.72;4917742;29;20047;-67
2021/11/26 07:28:22;;;;;;;3.75;1.70;;;;;;;19.14;75.25;101347.44;4916235;29;20114;-67
2021/11/26 07:30:50;;;;;;;2.00;0.95;;;;;;;19.09;75.40;101343.03;4918369;29;20076;-66
2021/11/26 07:33:19;;;;;;;5.13;1.50;;;;;;;19.02;75.47;101332.41;4913979;29;20477;-66
2021/11/26 07:35:47;;;;;;;1.77;1.00;;;;;;;18.90;75.76;101352.16;4913149;29;20044;-67
2021/11/26 07:38:14;;;;;;;1.08;0.85;;;;;;;18.80;75.92;101350.44;4913460;29;20051;-68
2021/11/26 07:40:43;;;;;;;3.97;1.50;;;;;;;18.68;76.09;101342.53;4918830;29;20056;-70
2021/11/26 07:43:10;;;;;;;3.65;1.60;;;;;;;18.49;76.30;101335.50;4916684;29;20035;-70
2021/11/26 07:45:38;;;;;;;0.55;0.40;;;;;;;18.30;76.89;101338.31;4907740;29;20135;-69
2021/11/26 07:48:06;;;;;;;0.13;0.10;;;;;;;18.13;77.35;101356.22;4927780;29;20055;-69
2021/11/26 07:50:35;;;;;;;1.05;0.50;;;;;;;18.00;77.92;101350.97;4913304;29;20105;-70
2021/11/26 07:53:03;;;;;;;1.25;1.10;;;;;;;17.87;78.16;101358.16;4912025;29;20040;-71
2021/11/26 07:55:33;;;;;;;0.43;0.32;;;;;;;17.78;78.58;101372.47;4894605;29;20449;-69
2021/11/26 07:58:01;;;;;;;0.35;0.35;;;;;;;17.74;79.16;101372.47;4926558;29;20048;-69
2021/11/26 08:00:29;;;;;;;0.45;0.38;;;;;;;17.73;79.28;101362.66;4912650;29;20055;-70
2021/11/26 08:03:01;;;;;;;1.70;1.25;;;;;;;17.74;79.24;101359.09;4916714;29;20109;-73
2021/11/26 08:05:29;;;;;;;2.33;1.15;;;;;;;17.75;79.58;101355.53;4906088;29;20162;-72
2021/11/26 08:07:58;;;;;;;4.85;2.03;;;;;;;17.78;80.08;101342.19;4903121;29;20056;-73
2021/11/26 08:10:27;;;;;;;6.45;1.90;;;;;;;17.79;80.73;101334.16;4888590;29;21137;-73
2021/11/26 08:12:54;;;;;;;2.50;1.50;;;;;;;17.81;81.04;101319.00;4908585;29;20055;-73
2021/11/26 08:15:23;;;;;;;4.13;1.80;;;;;;;17.83;81.27;101297.63;4916559;29;20045;-73
2021/11/26 08:17:51;;;;;;;2.78;1.48;;;;;;;17.85;81.52;101271.81;4910687;29;20044;-73
2021/11/26 08:20:20;;;;;;;3.50;2.03;;;;;;;17.89;81.55;101236.16;4894967;29;20624;-78
2021/11/26 08:22:50;;;;;;;3.42;1.90;;;;;;;17.85;81.60;101197.88;4909919;29;20059;-76
2021/11/26 08:25:23;;;;;;;3.72;1.98;;;;;;;17.83;81.73;101221.06;4905841;29;20056;-73
2021/11/26 08:27:51;;;;;;;2.42;1.77;;;;;;;17.81;82.15;101229.97;4893252;29;20156;-77
2021/11/26 08:30:20;;;;;;;3.10;1.52;;;;;;;17.81;82.46;101212.16;4889139;29;20046;-75
2021/11/26 08:32:49;;;;;;;2.95;1.67;;;;;;;17.83;82.80;101193.47;4894479;29;20572;-73
2021/11/26 08:35:17;;;;;;;3.42;1.90;;;;;;;17.86;83.18;101188.97;4890584;29;20063;-73
2021/11/26 08:37:45;;;;;;;3.80;1.83;;;;;;;17.91;83.16;101151.56;4886111;29;20449;-73
2021/11/26 08:40:14;;;;;;;2.33;1.88;;;;;;;17.98;83.00;101179.13;4867675;29;20068;-72
2021/11/26 08:42:43;;;;;;;2.97;2.00;;;;;;;18.04;82.64;101165.72;4889874;29;20059;-72
2021/11/26 08:45:12;;;;;;;3.95;2.40;;;;;;;18.07;82.42;101163.88;4896021;29;20040;-73
2021/11/26 08:47:40;;;;;;;2.47;1.67;;;;;;;18.10;82.36;101142.50;4879308;29;20056;-73
2021/11/26 08:50:13;;;;;;;4.10;2.10;;;;;;;18.20;81.76;101154.84;4881671;29;20131;-72
2021/11/26 08:52:41;;;;;;;2.63;1.60;;;;;;;18.30;81.29;101155.66;4895176;29;20088;-72
2021/11/26 08:55:12;;;;;;;3.05;1.65;;;;;;;18.35;80.80;101156.50;4882084;29;20049;-71
2021/11/26 08:57:42;;;;;;;2.30;1.65;;;;;;;18.40;80.41;101133.28;4895706;29;20055;-72
2021/11/26 09:00:14;;;;;;;4.90;2.42;;;;;;;18.46;80.20;101135.88;4864602;29;20124;-71
2021/11/26 09:02:41;;;;;;;2.38;1.80;;;;;;;18.54;79.52;101119.75;4892594;29;20059;-72
2021/11/26 09:05:09;;;;;;;5.13;1.92;;;;;;;18.58;79.52;101113.50;4875900;29;20056;-72
2021/11/26 09:07:37;;;;;;;4.80;2.40;;;;;;;18.67;78.82;101133.00;4878649;29;20072;-72
2021/11/26 09:10:06;;;;;;;2.20;1.50;;;;;;;18.81;78.39;101108.75;4869620;29;20059;-72
2021/11/26 09:12:33;;;;;;;3.13;1.67;;;;;;;18.88;78.12;101110.47;4871973;29;20053;-71
2021/11/26 09:15:01;;;;;;;6.20;2.45;;;;;;;18.98;77.63;101109.41;4880639;29;20077;-71
2021/11/26 09:17:31;;;;;;;3.30;1.30;;;;;;;19.06;77.32;101122.69;4868022;29;20053;-71
2021/11/26 09:19:59;;;;;;;3.00;1.27;;;;;;;19.05;77.73;101108.44;4895358;29;20045;-70
2021/11/26 09:22:30;;;;;;;3.30;2.22;;;;;;;19.08;77.71;101084.31;4878920;29;20052;-71
2021/11/26 09:24:59;;;;;;;2.75;1.90;;;;;;;19.10;77.21;101081.59;4898478;29;20067;-71
2021/11/26 09:27:26;;;;;;;2.03;1.52;;;;;;;19.14;76.43;101098.50;4912108;29;20040;-72
2021/11/26 09:29:54;;;;;;;2.13;1.35;;;;;;;19.15;76.54;101085.13;4910738;29;20072;-70
2021/11/26 09:32:22;;;;;;;4.13;2.00;;;;;;;19.16;76.30;101096.72;4910953;29;20056;-71
2021/11/26 09:34:52;;;;;;;1.98;1.50;;;;;;;19.24;76.38;101108.16;4894668;29;20040;-71
2021/11/26 09:37:21;;;;;;;3.22;2.17;;;;;;;19.25;76.14;101108.16;4903088;29;20037;-70
2021/11/26 09:39:48;;;;;;;1.40;1.05;;;;;;;19.28;75.61;101110.81;4910358;29;20044;-70
2021/11/26 09:42:16;;;;;;;1.48;1.38;;;;;;;19.34;75.44;101096.44;4900061;29;20139;-70
2021/11/26 09:44:44;;;;;;;3.83;2.00;;;;;;;19.38;75.50;101098.16;4903606;29;20182;-70
2021/11/26 09:47:12;;;;;;;2.75;1.45;;;;;;;19.41;75.50;101074.91;4910955;29;20416;-69
2021/11/26 09:49:40;;;;;;;5.55;2.03;;;;;;;19.52;74.83;101066.72;4913594;29;20063;-71
2021/11/26 09:52:10;;;;;;;4.63;1.58;;;;;;;19.61;74.24;101073.72;4919165;29;20048;-72
2021/11/26 09:54:39;;;;;;;2.35;1.50;;;;;;;19.70;74.33;101063.72;4912929;29;21103;-70
2021/11/26 09:57:08;;;;;;;2.65;1.63;;;;;;;19.76;74.11;101081.50;4899828;29;20138;-71
2021/11/26 09:59:37;;;;;;;2.53;1.60;;;;;;;19.88;74.14;101075.94;4911787;29;20104;-69
2021/11/26 10:02:16;;;;;;;2.58;1.60;;;;;;;19.95;73.84;101049.94;4885134;29;20140;-70
2021/11/26 10:04:45;;;;;;;2.63;1.63;;;;;;;20.00;73.72;101065.00;4920414;29;20127;-70
2021/11/26 10:07:14;;;;;;;2.15;1.13;;;;;;;20.10;73.77;101076.41;4908090;29;20408;-67
2021/11/26 10:09:42;;;;;;;1.98;1.13;;;;;;;20.16;74.08;101093.28;4926243;29;20143;-66
2021/11/26 10:12:15;;;;;;;7.60;1.73;;;;;;;20.29;74.02;101089.47;4899440;29;20470;-68
2021/11/26 10:14:46;;;;;;;2.53;1.30;;;;;;;20.44;73.22;101101.72;4914425;29;20079;-69
2021/11/26 10:17:17;;;;;;;2.55;1.42;;;;;;;20.52;72.96;101104.25;4902319;29;20140;-68
2021/11/26 10:19:48;;;;;;;1.67;1.10;;;;;;;20.57;73.11;101110.41;4902657;29;20052;-67
2021/11/26 10:22:22;;;;;;;5.22;1.70;;;;;;;20.58;72.77;101105.03;4889214;29;20130;-68
2021/11/26 10:25:00;;;;;;;;;;;;;;;20.53;72.90;101074.72;4895589;29;20481;-68
2021/11/26 10:27:41;;;;;;;2.13;1.27;;;;;;;20.53;72.24;101085.47;4908857;29;19953;-69
2021/11/26 10:30:21;;;;;;;3.30;1.70;;;;;;;20.47;72.05;101068.59;4925558;29;20052;-69
2021/11/26 10:32:58;;;;;;;3.55;1.70;;;;;;;20.45;71.48;101063.28;4892803;29;20067;-68
2021/11/26 10:35:28;;;;;;;2.22;1.20;;;;;;;20.44;71.26;101061.50;4912030;29;20048;-69
2021/11/26 10:38:04;;;;;;;2.13;1.20;;;;;;;20.43;71.75;101057.03;4911526;29;20052;-68
2021/11/26 10:40:33;;;;;;;2.97;1.27;;;;;;;20.44;71.96;101032.00;4909933;29;20123;-68
2021/11/26 10:43:04;;;;;;;3.58;1.83;;;;;;;20.53;71.56;101047.03;4901689;29;20117;-68
2021/11/26 10:45:51;;;;;;;3.65;1.67;;;;;;;20.58;71.04;101054.06;4876712;29;20116;-67
2021/11/26 11:00:13;;;;;;;4.28;1.60;;;;;;;20.61;71.25;101037.03;4910034;29;20056;-68
2021/11/26 11:02:44;;;;;;;3.10;1.33;;;;;;;20.62;70.72;101041.44;4884729;29;20079;-68
2021/11/26 11:05:23;;;;;;;3.22;1.90;;;;;;;20.64;70.79;101024.41;4879523;29;20123;-68
2021/11/26 11:07:51;;;;;;;3.00;1.85;;;;;;;20.70;70.43;101023.38;4909826;29;20040;-69
2021/11/26 11:10:29;;;;;;;4.20;1.92;;;;;;;20.76;69.82;101020.56;4884667;29;20044;-69
2021/11/26 11:13:01;;;;;;;2.88;1.67;;;;;;;20.73;69.86;101019.78;4885495;29;20060;-68
2021/11/26 11:15:29;;;;;;;3.65;1.60;;;;;;;20.74;70.03;101003.66;4895250;29;20640;-67
2021/11/26 11:17:57;;;;;;;3.50;1.58;;;;;;;20.76;70.16;101014.31;4910521;29;20063;-67
2021/11/26 11:20:25;;;;;;;4.70;1.73;;;;;;;20.81;70.11;101018.66;4882491;29;20051;-68
2021/11/26 11:22:53;;;;;;;3.63;1.63;;;;;;;20.84;69.86;101006.97;4885860;29;20385;-69
2021/11/26 11:25:26;;;;;;;2.33;0.85;;;;;;;20.89;69.35;101011.31;4900876;29;20143;-67
2021/11/26 11:27:56;;;;;;;2.83;1.85;;;;;;;20.91;68.95;101008.63;4894117;29;20051;-67
2021/11/26 11:30:26;;;;;;;5.30;2.38;;;;;;;20.91;68.83;100998.75;4897281;29;20036;-68
2021/11/26 11:32:54;;;;;;;4.15;1.98;;;;;;;20.93;68.66;100986.19;4894250;29;20508;-69
2021/11/26 11:35:24;;;;;;;2.58;1.13;;;;;;;20.99;68.64;100999.47;4892019;29;20581;-68
2021/11/26 11:37:54;;;;;;;3.38;1.35;;;;;;;20.97;68.70;100995.03;4902224;29;20050;-68
2021/11/26 11:40:27;;;;;;;4.55;1.70;;;;;;;20.96;68.91;100994.16;4910198;29;20045;-68
2021/11/26 11:43:09;;;;;;;2.13;1.15;;;;;;;20.96;69.05;100998.66;4904303;29;20044;-67